Time,TemperatureF,DewpointF,PressureIn,WindDirection,WindDirectionDegrees,WindSpeedMPH,WindSpeedGustMPH,Humidity,HourlyPrecipIn,Conditions,Clouds,dailyrainin,SoftwareType,DateUTC
2013-09-07 00:00:00,52.7,42.1,29.86,SE,130,3.0,3.0,67,0.00,,,0.00,WeatherTracker,2013-09-07 07:00:00,
2013-09-07 00:05:00,52.2,41.6,29.86,SE,131,3.0,3.0,67,0.00,,,0.00,WeatherTracker,2013-09-07 07:05:00,
2013-09-07 00:10:00,51.7,41.1,29.86,SE,131,1.0,4.0,67,0.00,,,0.00,WeatherTracker,2013-09-07 07:10:00,
2013-09-07 00:15:00,51.4,41.6,29.87,SE,132,0.0,4.0,69,0.00,,,0.00,WeatherTracker,2013-09-07 07:15:00,
2013-09-07 00:20:00,51.5,42.0,29.86,SE,132,1.0,3.0,70,0.00,,,0.00,WeatherTracker,2013-09-07 07:20:00,
2013-09-07 00:25:00,51.7,42.2,29.87,SE,132,1.0,3.0,70,0.00,,,0.00,WeatherTracker,2013-09-07 07:25:00,
2013-09-07 00:30:00,51.4,41.9,29.87,SE,131,0.0,2.0,70,0.00,,,0.00,WeatherTracker,2013-09-07 07:30:00,
2013-09-07 00:35:00,51.4,41.6,29.87,SE,132,1.0,2.0,69,0.00,,,0.00,WeatherTracker,2013-09-07 07:35:00,
2013-09-07 00:41:00,53.5,41.6,29.87,SE,131,3.0,4.0,64,0.00,,,0.00,WeatherTracker,2013-09-07 07:41:00,
2013-09-07 00:46:00,54.4,41.7,29.87,SE,131,2.0,4.0,62,0.00,,,0.00,WeatherTracker,2013-09-07 07:46:00,
2013-09-07 00:51:00,54.6,41.8,29.87,SE,131,0.0,4.0,62,0.00,,,0.00,WeatherTracker,2013-09-07 07:51:00,
2013-09-07 00:56:00,54.4,41.7,29.87,SE,132,2.0,3.0,62,0.00,,,0.00,WeatherTracker,2013-09-07 07:56:00,
2013-09-07 01:01:00,53.8,41.1,29.88,SE,132,1.0,4.0,62,0.00,,,0.00,WeatherTracker,2013-09-07 08:01:00,
2013-09-07 01:06:00,53.2,40.9,29.88,SE,132,0.0,4.0,63,0.00,,,0.00,WeatherTracker,2013-09-07 08:06:00,
2013-09-07 01:11:00,52.7,40.9,29.88,SE,132,0.0,3.0,64,0.00,,,0.00,WeatherTracker,2013-09-07 08:11:00,
2013-09-07 01:16:00,52.4,41.0,29.88,SE,132,0.0,2.0,65,0.00,,,0.00,WeatherTracker,2013-09-07 08:16:00,
2013-09-07 01:21:00,52.1,41.1,29.88,SE,131,0.0,0.0,66,0.00,,,0.00,WeatherTracker,2013-09-07 08:21:00,
2013-09-07 01:26:00,51.6,41.0,29.88,SE,132,0.0,2.0,67,0.00,,,0.00,WeatherTracker,2013-09-07 08:26:00,
2013-09-07 01:31:00,51.4,41.2,29.88,SE,131,0.0,2.0,68,0.00,,,0.00,WeatherTracker,2013-09-07 08:31:00,
2013-09-07 01:36:00,51.3,41.1,29.88,SE,132,1.0,0.0,68,0.00,,,0.00,WeatherTracker,2013-09-07 08:36:00,
2013-09-07 01:41:00,50.6,40.4,29.88,SE,131,0.0,2.0,68,0.00,,,0.00,WeatherTracker,2013-09-07 08:41:00,
2013-09-07 01:46:00,50.0,40.2,29.88,SE,132,0.0,3.0,69,0.00,,,0.00,WeatherTracker,2013-09-07 08:46:00,
2013-09-07 01:51:00,49.6,40.2,29.88,SE,132,0.0,3.0,70,0.00,,,0.00,WeatherTracker,2013-09-07 08:51:00,
2013-09-07 01:56:00,49.5,40.1,29.88,SE,132,0.0,2.0,70,0.00,,,0.00,WeatherTracker,2013-09-07 08:56:00,
2013-09-07 02:01:00,49.5,40.1,29.88,SE,132,0.0,3.0,70,0.00,,,0.00,WeatherTracker,2013-09-07 09:01:00,
2013-09-07 02:06:00,49.4,40.0,29.88,SE,131,0.0,3.0,70,0.00,,,0.00,WeatherTracker,2013-09-07 09:06:00,
2013-09-07 02:11:00,49.1,40.1,29.88,SE,132,0.0,2.0,71,0.00,,,0.00,WeatherTracker,2013-09-07 09:11:00,
2013-09-07 02:16:00,48.3,39.7,29.88,SE,132,0.0,1.0,72,0.00,,,0.00,WeatherTracker,2013-09-07 09:16:00,
2013-09-07 02:21:00,47.8,39.6,29.88,SE,132,0.0,2.0,73,0.00,,,0.00,WeatherTracker,2013-09-07 09:21:00,
2013-09-07 02:26:00,48.0,39.8,29.88,SE,131,0.0,2.0,73,0.00,,,0.00,WeatherTracker,2013-09-07 09:26:00,
2013-09-07 02:31:00,48.0,39.8,29.88,SE,132,0.0,2.0,73,0.00,,,0.00,WeatherTracker,2013-09-07 09:31:00,
2013-09-07 02:37:00,47.9,39.3,29.88,SE,131,0.0,0.0,72,0.00,,,0.00,WeatherTracker,2013-09-07 09:37:00,
2013-09-07 02:42:00,47.6,39.4,29.89,SE,131,0.0,0.0,73,0.00,,,0.00,WeatherTracker,2013-09-07 09:42:00,
2013-09-07 02:47:00,47.6,39.4,29.89,SE,132,0.0,0.0,73,0.00,,,0.00,WeatherTracker,2013-09-07 09:47:00,
2013-09-07 02:52:00,48.6,40.0,29.88,SE,131,0.0,1.0,72,0.00,,,0.00,WeatherTracker,2013-09-07 09:52:00,
2013-09-07 02:57:00,49.3,39.9,29.88,SE,132,0.0,1.0,70,0.00,,,0.00,WeatherTracker,2013-09-07 09:57:00,
2013-09-07 03:02:00,50.2,40.4,29.89,SE,132,0.0,1.0,69,0.00,,,0.00,WeatherTracker,2013-09-07 10:02:00,
2013-09-07 03:07:00,50.2,40.1,29.89,SE,132,0.0,1.0,68,0.00,,,0.00,WeatherTracker,2013-09-07 10:07:00,
2013-09-07 03:12:00,49.7,39.9,29.89,SE,131,0.0,0.0,69,0.00,,,0.00,WeatherTracker,2013-09-07 10:12:00,
2013-09-07 03:17:00,49.2,39.5,29.88,SE,132,1.0,3.0,69,0.00,,,0.00,WeatherTracker,2013-09-07 10:17:00,
2013-09-07 03:22:00,49.0,39.6,29.89,SE,132,2.0,3.0,70,0.00,,,0.00,WeatherTracker,2013-09-07 10:22:00,
2013-09-07 03:27:00,48.5,39.2,29.89,SE,132,0.0,4.0,70,0.00,,,0.00,WeatherTracker,2013-09-07 10:27:00,
2013-09-07 03:32:00,48.1,39.1,29.89,SE,131,0.0,4.0,71,0.00,,,0.00,WeatherTracker,2013-09-07 10:32:00,
2013-09-07 03:37:00,47.7,39.1,29.89,SE,132,0.0,3.0,72,0.00,,,0.00,WeatherTracker,2013-09-07 10:37:00,
2013-09-07 03:42:00,47.2,39.0,29.89,SE,132,0.0,0.0,73,0.00,,,0.00,WeatherTracker,2013-09-07 10:42:00,
2013-09-07 03:47:00,47.0,38.8,29.89,SE,132,0.0,0.0,73,0.00,,,0.00,WeatherTracker,2013-09-07 10:47:00,
2013-09-07 03:52:00,46.2,39.1,29.89,SE,132,0.0,0.0,76,0.00,,,0.00,WeatherTracker,2013-09-07 10:52:00,
2013-09-07 03:57:00,45.7,38.9,29.89,SE,132,0.0,0.0,77,0.00,,,0.00,WeatherTracker,2013-09-07 10:57:00,
2013-09-07 04:02:00,45.3,38.9,29.89,SE,132,0.0,0.0,78,0.00,,,0.00,WeatherTracker,2013-09-07 11:02:00,
2013-09-07 04:07:00,45.0,38.9,29.88,SE,132,0.0,0.0,79,0.00,,,0.00,WeatherTracker,2013-09-07 11:07:00,
2013-09-07 04:13:00,45.5,39.4,29.89,SE,132,0.0,0.0,79,0.00,,,0.00,WeatherTracker,2013-09-07 11:13:00,
2013-09-07 04:18:00,45.9,39.4,29.89,SE,131,0.0,0.0,78,0.00,,,0.00,WeatherTracker,2013-09-07 11:18:00,
2013-09-07 04:23:00,45.6,38.5,29.89,SE,132,0.0,0.0,76,0.00,,,0.00,WeatherTracker,2013-09-07 11:23:00,
2013-09-07 04:28:00,45.1,38.3,29.88,SE,132,0.0,0.0,77,0.00,,,0.00,WeatherTracker,2013-09-07 11:28:00,
2013-09-07 04:33:00,45.0,38.6,29.88,SE,132,0.0,0.0,78,0.00,,,0.00,WeatherTracker,2013-09-07 11:33:00,
2013-09-07 04:38:00,44.3,37.9,29.88,SE,131,0.0,0.0,78,0.00,,,0.00,WeatherTracker,2013-09-07 11:38:00,
2013-09-07 04:43:00,43.2,36.8,29.88,SE,132,0.0,4.0,78,0.00,,,0.00,WeatherTracker,2013-09-07 11:43:00,
2013-09-07 04:48:00,43.2,37.5,29.88,SE,132,0.0,4.0,80,0.00,,,0.00,WeatherTracker,2013-09-07 11:48:00,
2013-09-07 04:53:00,42.3,36.3,29.88,SE,132,2.0,3.0,79,0.00,,,0.00,WeatherTracker,2013-09-07 11:53:00,
2013-09-07 04:58:00,41.9,36.5,29.88,SE,131,1.0,3.0,81,0.00,,,0.00,WeatherTracker,2013-09-07 11:58:00,
2013-09-07 05:03:00,41.5,36.1,29.88,SE,132,2.0,3.0,81,0.00,,,0.00,WeatherTracker,2013-09-07 12:03:00,
2013-09-07 05:08:00,41.5,36.4,29.88,SE,132,1.0,2.0,82,0.00,,,0.00,WeatherTracker,2013-09-07 12:08:00,
2013-09-07 05:13:00,42.1,37.6,29.89,SE,132,0.0,2.0,84,0.00,,,0.00,WeatherTracker,2013-09-07 12:13:00,
2013-09-07 05:18:00,42.7,38.2,29.89,SE,132,0.0,2.0,84,0.00,,,0.00,WeatherTracker,2013-09-07 12:18:00,
2013-09-07 05:23:00,43.1,38.0,29.89,SE,131,0.0,1.0,82,0.00,,,0.00,WeatherTracker,2013-09-07 12:23:00,
2013-09-07 05:28:00,43.3,37.9,29.89,SE,131,0.0,2.0,81,0.00,,,0.00,WeatherTracker,2013-09-07 12:28:00,
2013-09-07 05:33:00,43.1,37.0,29.89,SE,131,0.0,3.0,79,0.00,,,0.00,WeatherTracker,2013-09-07 12:33:00,
2013-09-07 05:38:00,42.3,36.3,29.89,SE,131,3.0,3.0,79,0.00,,,0.00,WeatherTracker,2013-09-07 12:38:00,
2013-09-07 05:43:00,40.9,34.6,29.89,SE,132,2.0,3.0,78,0.00,,,0.00,WeatherTracker,2013-09-07 12:43:00,
2013-09-07 05:48:00,40.9,35.8,29.89,SE,132,0.0,4.0,82,0.00,,,0.00,WeatherTracker,2013-09-07 12:48:00,
2013-09-07 05:53:00,41.3,36.5,29.89,SE,132,0.0,4.0,83,0.00,,,0.00,WeatherTracker,2013-09-07 12:53:00,
2013-09-07 05:58:00,42.0,37.2,29.89,SE,131,0.0,1.0,83,0.00,,,0.00,WeatherTracker,2013-09-07 12:58:00,
2013-09-07 06:04:00,42.7,37.6,29.90,SE,132,0.0,0.0,82,0.00,,,0.00,WeatherTracker,2013-09-07 13:04:00,
2013-09-07 06:09:00,42.5,36.8,29.90,SE,131,1.0,0.0,80,0.00,,,0.00,WeatherTracker,2013-09-07 13:09:00,
2013-09-07 06:14:00,41.4,35.1,29.90,SE,132,0.0,3.0,78,0.00,,,0.00,WeatherTracker,2013-09-07 13:14:00,
2013-09-07 06:19:00,40.7,35.0,29.90,SE,132,0.0,3.0,80,0.00,,,0.00,WeatherTracker,2013-09-07 13:19:00,
2013-09-07 06:24:00,40.6,34.9,29.91,SE,132,0.0,0.0,80,0.00,,,0.00,WeatherTracker,2013-09-07 13:24:00,
2013-09-07 06:29:00,40.6,35.2,29.90,SE,132,0.0,0.0,81,0.00,,,0.00,WeatherTracker,2013-09-07 13:29:00,
2013-09-07 06:34:00,40.8,35.4,29.90,SE,132,0.0,0.0,81,0.00,,,0.00,WeatherTracker,2013-09-07 13:34:00,
2013-09-07 06:39:00,40.9,35.5,29.91,SE,132,1.0,0.0,81,0.00,,,0.00,WeatherTracker,2013-09-07 13:39:00,
2013-09-07 06:44:00,40.2,34.2,29.91,SE,132,0.0,5.0,79,0.00,,,0.00,WeatherTracker,2013-09-07 13:44:00,
2013-09-07 06:49:00,39.9,34.6,29.91,SE,132,0.0,5.0,81,0.00,,,0.00,WeatherTracker,2013-09-07 13:49:00,
2013-09-07 06:54:00,39.9,34.6,29.91,SE,132,0.0,2.0,81,0.00,,,0.00,WeatherTracker,2013-09-07 13:54:00,
2013-09-07 06:59:00,40.0,35.0,29.91,SE,132,0.0,2.0,82,0.00,,,0.00,WeatherTracker,2013-09-07 13:59:00,
2013-09-07 07:04:00,40.8,36.3,29.91,SE,132,0.0,0.0,84,0.00,,,0.00,WeatherTracker,2013-09-07 14:04:00,
2013-09-07 07:09:00,41.5,36.4,29.91,SE,132,0.0,0.0,82,0.00,,,0.00,WeatherTracker,2013-09-07 14:09:00,
2013-09-07 07:14:00,41.7,36.0,29.92,SE,132,0.0,4.0,80,0.00,,,0.00,WeatherTracker,2013-09-07 14:14:00,
2013-09-07 07:19:00,41.9,36.2,29.91,SE,131,1.0,4.0,80,0.00,,,0.00,WeatherTracker,2013-09-07 14:19:00,
2013-09-07 07:24:00,42.5,37.1,29.91,SE,132,0.0,3.0,81,0.00,,,0.00,WeatherTracker,2013-09-07 14:24:00,
2013-09-07 07:29:00,43.1,37.4,29.92,SE,132,0.0,3.0,80,0.00,,,0.00,WeatherTracker,2013-09-07 14:29:00,
2013-09-07 07:34:00,43.9,38.1,29.92,SE,131,0.0,1.0,80,0.00,,,0.00,WeatherTracker,2013-09-07 14:34:00,
2013-09-07 07:39:00,45.1,39.0,29.92,SE,132,0.0,1.0,79,0.00,,,0.00,WeatherTracker,2013-09-07 14:39:00,
2013-09-07 07:44:00,46.3,39.8,29.92,SE,131,1.0,0.0,78,0.00,,,0.00,WeatherTracker,2013-09-07 14:44:00,
2013-09-07 07:49:00,47.2,40.0,29.92,SE,131,0.0,2.0,76,0.00,,,0.00,WeatherTracker,2013-09-07 14:49:00,
2013-09-07 07:54:00,48.2,40.7,29.92,SE,132,0.0,2.0,75,0.00,,,0.00,WeatherTracker,2013-09-07 14:54:00,
2013-09-07 07:59:00,48.8,41.2,29.92,SE,131,0.0,1.0,75,0.00,,,0.00,WeatherTracker,2013-09-07 14:59:00,
2013-09-07 08:04:00,49.6,42.3,29.91,SE,132,0.0,2.0,76,0.00,,,0.00,WeatherTracker,2013-09-07 15:04:00,
2013-09-07 08:10:00,50.3,42.0,29.91,SE,132,2.0,3.0,73,0.00,,,0.00,WeatherTracker,2013-09-07 15:10:00,
2013-09-07 08:15:00,51.1,42.4,29.91,SE,132,0.0,3.0,72,0.00,,,0.00,WeatherTracker,2013-09-07 15:15:00,
2013-09-07 08:20:00,52.4,43.3,29.91,SE,132,0.0,2.0,71,0.00,,,0.00,WeatherTracker,2013-09-07 15:20:00,
2013-09-07 08:25:00,53.5,43.2,29.91,SE,132,0.0,0.0,68,0.00,,,0.00,WeatherTracker,2013-09-07 15:25:00,
2013-09-07 08:30:00,54.5,43.4,29.91,SE,131,0.0,0.0,66,0.00,,,0.00,WeatherTracker,2013-09-07 15:30:00,
2013-09-07 08:35:00,55.1,43.1,29.91,SE,131,0.0,2.0,64,0.00,,,0.00,WeatherTracker,2013-09-07 15:35:00,
2013-09-07 08:40:00,55.8,43.4,29.91,SE,132,0.0,2.0,63,0.00,,,0.00,WeatherTracker,2013-09-07 15:40:00,
2013-09-07 08:45:00,56.6,43.7,29.91,SE,131,0.0,3.0,62,0.00,,,0.00,WeatherTracker,2013-09-07 15:45:00,
2013-09-07 08:50:00,57.2,42.6,29.92,SE,132,0.0,3.0,58,0.00,,,0.00,WeatherTracker,2013-09-07 15:50:00,
2013-09-07 08:55:00,57.9,43.2,29.92,SE,132,1.0,3.0,58,0.00,,,0.00,WeatherTracker,2013-09-07 15:55:00,
2013-09-07 09:00:00,58.7,43.0,29.92,SE,131,1.0,3.0,56,0.00,,,0.00,WeatherTracker,2013-09-07 16:00:00,
2013-09-07 09:05:00,59.1,42.9,29.91,SE,131,0.0,3.0,55,0.00,,,0.00,WeatherTracker,2013-09-07 16:05:00,
2013-09-07 09:10:00,59.9,43.7,29.91,North,350,2.0,4.0,55,0.00,,,0.00,WeatherTracker,2013-09-07 16:10:00,
2013-09-07 09:15:00,60.6,43.4,29.92,NNW,345,4.0,5.0,53,0.00,,,0.00,WeatherTracker,2013-09-07 16:15:00,
2013-09-07 09:20:00,61.2,43.9,29.92,NNW,345,2.0,5.0,53,0.00,,,0.00,WeatherTracker,2013-09-07 16:20:00,
2013-09-07 09:25:00,61.8,44.5,29.91,NW,306,3.0,5.0,53,0.00,,,0.00,WeatherTracker,2013-09-07 16:25:00,
2013-09-07 09:30:00,61.8,45.0,29.91,WNW,290,3.0,6.0,54,0.00,,,0.00,WeatherTracker,2013-09-07 16:30:00,
2013-09-07 09:35:00,62.0,43.7,29.91,WNW,289,3.0,6.0,51,0.00,,,0.00,WeatherTracker,2013-09-07 16:35:00,
2013-09-07 09:40:00,62.7,43.8,29.91,WNW,290,3.0,5.0,50,0.00,,,0.00,WeatherTracker,2013-09-07 16:40:00,
2013-09-07 09:46:00,63.5,42.3,29.91,NW,325,0.0,5.0,46,0.00,,,0.00,WeatherTracker,2013-09-07 16:46:00,
2013-09-07 09:51:00,64.1,42.9,29.91,North,350,0.0,5.0,46,0.00,,,0.00,WeatherTracker,2013-09-07 16:51:00,
2013-09-07 09:56:00,65.2,43.3,29.91,North,352,2.0,5.0,45,0.00,,,0.00,WeatherTracker,2013-09-07 16:56:00,
2013-09-07 10:01:00,66.1,43.5,29.91,North,7,2.0,4.0,44,0.00,,,0.00,WeatherTracker,2013-09-07 17:01:00,
2013-09-07 10:06:00,66.9,44.3,29.91,North,6,0.0,4.0,44,0.00,,,0.00,WeatherTracker,2013-09-07 17:06:00,
2013-09-07 10:11:00,67.9,44.6,29.90,North,6,3.0,3.0,43,0.00,,,0.00,WeatherTracker,2013-09-07 17:11:00,
2013-09-07 10:16:00,68.7,42.7,29.90,North,6,0.0,3.0,39,0.00,,,0.00,WeatherTracker,2013-09-07 17:16:00,
2013-09-07 10:21:00,69.5,44.8,29.90,North,6,0.0,3.0,41,0.00,,,0.00,WeatherTracker,2013-09-07 17:21:00,
2013-09-07 10:26:00,70.6,45.7,29.89,North,5,3.0,3.0,41,0.00,,,0.00,WeatherTracker,2013-09-07 17:26:00,
2013-09-07 10:31:00,71.0,44.1,29.89,North,354,0.0,4.0,38,0.00,,,0.00,WeatherTracker,2013-09-07 17:31:00,
2013-09-07 10:36:00,71.3,44.4,29.89,North,354,0.0,4.0,38,0.00,,,0.00,WeatherTracker,2013-09-07 17:36:00,
2013-09-07 10:41:00,72.0,44.3,29.89,North,354,0.0,4.0,37,0.00,,,0.00,WeatherTracker,2013-09-07 17:41:00,
2013-09-07 10:46:00,72.6,43.4,29.89,North,354,0.0,3.0,35,0.00,,,0.00,WeatherTracker,2013-09-07 17:46:00,
2013-09-07 10:51:00,73.4,44.8,29.89,North,354,0.0,3.0,36,0.00,,,0.00,WeatherTracker,2013-09-07 17:51:00,
2013-09-07 10:56:00,74.2,43.2,29.89,North,354,0.0,3.0,33,0.00,,,0.00,WeatherTracker,2013-09-07 17:56:00,
2013-09-07 11:01:00,74.0,44.6,29.89,North,358,0.0,4.0,35,0.00,,,0.00,WeatherTracker,2013-09-07 18:01:00,
2013-09-07 11:06:00,74.3,43.3,29.88,North,356,0.0,4.0,33,0.00,,,0.00,WeatherTracker,2013-09-07 18:06:00,
2013-09-07 11:11:00,74.5,45.8,29.88,West,271,2.0,5.0,36,0.00,,,0.00,WeatherTracker,2013-09-07 18:11:00,
2013-09-07 11:16:00,74.4,45.7,29.88,West,271,0.0,5.0,36,0.00,,,0.00,WeatherTracker,2013-09-07 18:16:00,
2013-09-07 11:21:00,74.5,47.2,29.88,West,270,1.0,4.0,38,0.00,,,0.00,WeatherTracker,2013-09-07 18:21:00,
2013-09-07 11:26:00,75.0,46.2,29.88,West,270,0.0,4.0,36,0.00,,,0.00,WeatherTracker,2013-09-07 18:26:00,
2013-09-07 11:31:00,76.1,43.3,29.87,North,10,1.0,4.0,31,0.00,,,0.00,WeatherTracker,2013-09-07 18:31:00,
2013-09-07 11:37:00,77.1,44.1,29.87,North,2,0.0,4.0,31,0.00,,,0.00,WeatherTracker,2013-09-07 18:37:00,
2013-09-07 11:42:00,78.1,44.1,29.87,NNE,17,2.0,4.0,30,0.00,,,0.00,WeatherTracker,2013-09-07 18:42:00,
2013-09-07 11:47:00,78.7,43.7,29.86,NNE,17,0.0,4.0,29,0.00,,,0.00,WeatherTracker,2013-09-07 18:47:00,
2013-09-07 11:52:00,78.9,43.9,29.86,North,1,2.0,5.0,29,0.00,,,0.00,WeatherTracker,2013-09-07 18:52:00,
2013-09-07 11:57:00,79.1,45.8,29.86,North,356,0.0,5.0,31,0.00,,,0.00,WeatherTracker,2013-09-07 18:57:00,
2013-09-07 12:02:00,79.4,43.4,29.86,NNW,345,0.0,5.0,28,0.00,,,0.00,WeatherTracker,2013-09-07 19:02:00,
2013-09-07 12:07:00,79.8,46.5,29.85,NNW,345,0.0,5.0,31,0.00,,,0.00,WeatherTracker,2013-09-07 19:07:00,
2013-09-07 12:12:00,80.7,47.2,29.85,NW,308,2.0,4.0,31,0.00,,,0.00,WeatherTracker,2013-09-07 19:12:00,
2013-09-07 12:17:00,80.8,43.7,29.84,NNW,345,0.0,6.0,27,0.00,,,0.00,WeatherTracker,2013-09-07 19:17:00,
2013-09-07 12:22:00,81.0,43.8,29.84,NNW,330,0.0,6.0,27,0.00,,,0.00,WeatherTracker,2013-09-07 19:22:00,
2013-09-07 12:27:00,81.2,45.9,29.84,NNW,343,2.0,5.0,29,0.00,,,0.00,WeatherTracker,2013-09-07 19:27:00,
2013-09-07 12:32:00,81.7,43.5,29.84,NNE,23,0.0,5.0,26,0.00,,,0.00,WeatherTracker,2013-09-07 19:32:00,
2013-09-07 12:37:00,81.8,43.5,29.84,WNW,295,1.0,6.0,26,0.00,,,0.00,WeatherTracker,2013-09-07 19:37:00,
2013-09-07 12:42:00,81.9,45.6,29.84,NW,318,2.0,6.0,28,0.00,,,0.00,WeatherTracker,2013-09-07 19:42:00,
2013-09-07 12:47:00,82.5,44.1,29.84,NW,319,0.0,5.0,26,0.00,,,0.00,WeatherTracker,2013-09-07 19:47:00,
2013-09-07 12:52:00,83.1,43.6,29.83,NNE,21,0.0,3.0,25,0.00,,,0.00,WeatherTracker,2013-09-07 19:52:00,
2013-09-07 12:57:00,83.8,45.2,29.83,WNW,290,3.0,4.0,26,0.00,,,0.00,WeatherTracker,2013-09-07 19:57:00,
2013-09-07 13:02:00,83.0,46.5,29.83,WSW,237,2.0,5.0,28,0.00,,,0.00,WeatherTracker,2013-09-07 20:02:00,
2013-09-07 13:07:00,82.3,47.7,29.82,SSW,192,2.0,5.0,30,0.00,,,0.00,WeatherTracker,2013-09-07 20:07:00,
2013-09-07 13:13:00,81.7,45.4,29.82,SSW,210,3.0,5.0,28,0.00,,,0.00,WeatherTracker,2013-09-07 20:13:00,
2013-09-07 13:18:00,82.2,43.9,29.82,NNE,12,3.0,16.0,26,0.00,,,0.00,WeatherTracker,2013-09-07 20:18:00,
2013-09-07 13:23:00,83.0,42.5,29.82,North,8,0.0,16.0,24,0.00,,,0.00,WeatherTracker,2013-09-07 20:23:00,
2013-09-07 13:28:00,84.1,44.5,29.82,North,10,2.0,11.0,25,0.00,,,0.00,WeatherTracker,2013-09-07 20:28:00,
2013-09-07 13:33:00,84.9,45.1,29.82,NE,51,1.0,5.0,25,0.00,,,0.00,WeatherTracker,2013-09-07 20:33:00,
2013-09-07 13:38:00,85.7,44.7,29.82,East,85,0.0,5.0,24,0.00,,,0.00,WeatherTracker,2013-09-07 20:38:00,
2013-09-07 13:43:00,86.5,44.3,29.82,East,84,0.0,4.0,23,0.00,,,0.00,WeatherTracker,2013-09-07 20:43:00,
2013-09-07 13:48:00,86.7,45.6,29.81,NE,45,1.0,4.0,24,0.00,,,0.00,WeatherTracker,2013-09-07 20:48:00,
2013-09-07 13:53:00,86.8,45.6,29.81,ENE,66,4.0,4.0,24,0.00,,,0.00,WeatherTracker,2013-09-07 20:53:00,
2013-09-07 13:58:00,86.2,42.9,29.81,East,81,0.0,5.0,22,0.00,,,0.00,WeatherTracker,2013-09-07 20:58:00,
2013-09-07 14:03:00,86.4,45.3,29.80,NE,44,0.0,5.0,24,0.00,,,0.00,WeatherTracker,2013-09-07 21:03:00,
2013-09-07 14:08:00,86.8,42.1,29.80,ENE,66,0.0,5.0,21,0.00,,,0.00,WeatherTracker,2013-09-07 21:08:00,
2013-09-07 14:13:00,87.1,43.6,29.80,NNE,17,2.0,5.0,22,0.00,,,0.00,WeatherTracker,2013-09-07 21:13:00,
2013-09-07 14:18:00,86.7,43.3,29.80,North,360,0.0,5.0,22,0.00,,,0.00,WeatherTracker,2013-09-07 21:18:00,
2013-09-07 14:23:00,87.1,43.6,29.80,NNE,29,3.0,6.0,22,0.00,,,0.00,WeatherTracker,2013-09-07 21:23:00,
2013-09-07 14:29:00,87.0,44.7,29.80,ESE,110,0.0,6.0,23,0.00,,,0.00,WeatherTracker,2013-09-07 21:29:00,
2013-09-07 14:34:00,87.5,45.1,29.79,NNE,27,3.0,5.0,23,0.00,,,0.00,WeatherTracker,2013-09-07 21:34:00,
2013-09-07 14:39:00,87.9,45.4,29.79,NE,53,0.0,5.0,23,0.00,,,0.00,WeatherTracker,2013-09-07 21:39:00,
2013-09-07 14:44:00,88.4,42.2,29.79,North,4,3.0,5.0,20,0.00,,,0.00,WeatherTracker,2013-09-07 21:44:00,
2013-09-07 14:49:00,88.1,41.9,29.79,North,6,1.0,10.0,20,0.00,,,0.00,WeatherTracker,2013-09-07 21:49:00,
2013-09-07 14:54:00,88.0,43.1,29.79,NE,44,4.0,10.0,21,0.00,,,0.00,WeatherTracker,2013-09-07 21:54:00,
2013-09-07 14:59:00,88.0,41.9,29.79,North,359,2.0,5.0,20,0.00,,,0.00,WeatherTracker,2013-09-07 21:59:00,
2013-09-07 15:04:00,87.9,41.8,29.78,North,8,0.0,5.0,20,0.00,,,0.00,WeatherTracker,2013-09-07 22:04:00,
2013-09-07 15:09:00,87.1,42.4,29.78,SE,139,3.0,5.0,21,0.00,,,0.00,WeatherTracker,2013-09-07 22:09:00,
2013-09-07 15:14:00,86.1,41.6,29.78,SSE,158,4.0,6.0,21,0.00,,,0.00,WeatherTracker,2013-09-07 22:14:00,
2013-09-07 15:19:00,86.6,42.0,29.78,ESE,117,0.0,7.0,21,0.00,,,0.00,WeatherTracker,2013-09-07 22:19:00,
2013-09-07 15:24:00,86.9,42.2,29.78,SE,140,2.0,7.0,21,0.00,,,0.00,WeatherTracker,2013-09-07 22:24:00,
2013-09-07 15:29:00,87.2,42.5,29.78,ENE,71,1.0,6.0,21,0.00,,,0.00,WeatherTracker,2013-09-07 22:29:00,
2013-09-07 15:34:00,87.8,41.7,29.78,ESE,116,0.0,6.0,20,0.00,,,0.00,WeatherTracker,2013-09-07 22:34:00,
2013-09-07 15:39:00,88.5,40.9,29.78,WSW,242,3.0,4.0,19,0.00,,,0.00,WeatherTracker,2013-09-07 22:39:00,
2013-09-07 15:44:00,88.1,40.6,29.77,WSW,242,2.0,4.0,19,0.00,,,0.00,WeatherTracker,2013-09-07 22:44:00,
2013-09-07 15:49:00,88.2,42.0,29.77,West,266,2.0,4.0,20,0.00,,,0.00,WeatherTracker,2013-09-07 22:49:00,
2013-09-07 15:54:00,88.3,40.8,29.77,West,278,2.0,5.0,19,0.00,,,0.00,WeatherTracker,2013-09-07 22:54:00,
2013-09-07 15:59:00,88.1,39.2,29.77,West,262,7.0,10.0,18,0.00,,,0.00,WeatherTracker,2013-09-07 22:59:00,
2013-09-07 16:04:00,87.6,40.2,29.77,WNW,285,5.0,12.0,19,0.00,,,0.00,WeatherTracker,2013-09-07 23:04:00,
2013-09-07 16:09:00,87.5,37.3,29.76,West,268,0.0,12.0,17,0.00,,,0.00,WeatherTracker,2013-09-07 23:09:00,
2013-09-07 16:14:00,87.0,42.3,29.76,SSW,212,1.0,12.0,21,0.00,,,0.00,WeatherTracker,2013-09-07 23:14:00,
2013-09-07 16:19:00,87.6,42.8,29.76,ENE,57,3.0,12.0,21,0.00,,,0.00,WeatherTracker,2013-09-07 23:19:00,
2013-09-07 16:24:00,87.1,39.8,29.76,South,171,5.0,9.0,19,0.00,,,0.00,WeatherTracker,2013-09-07 23:24:00,
2013-09-07 16:29:00,86.7,40.8,29.76,West,272,6.0,14.0,20,0.00,,,0.00,WeatherTracker,2013-09-07 23:29:00,
2013-09-07 16:34:00,86.1,39.0,29.76,West,275,3.0,14.0,19,0.00,,,0.00,WeatherTracker,2013-09-07 23:34:00,
2013-09-07 16:39:00,86.3,40.5,29.76,WSW,237,1.0,13.0,20,0.00,,,0.00,WeatherTracker,2013-09-07 23:39:00,
2013-09-07 16:44:00,86.4,39.2,29.76,SSW,209,10.0,13.0,19,0.00,,,0.00,WeatherTracker,2013-09-07 23:44:00,
2013-09-07 16:50:00,85.7,35.8,29.76,South,171,10.0,15.0,17,0.00,,,0.00,WeatherTracker,2013-09-07 23:50:00,
2013-09-07 16:55:00,85.0,39.4,29.76,South,176,10.0,15.0,20,0.00,,,0.00,WeatherTracker,2013-09-07 23:55:00,
2013-09-07 17:00:00,85.0,38.1,29.76,South,173,6.0,16.0,19,0.00,,,0.00,WeatherTracker,2013-09-08 00:00:00,
2013-09-07 17:05:00,84.8,40.5,29.77,South,187,5.0,16.0,21,0.00,,,0.00,WeatherTracker,2013-09-08 00:05:00,
2013-09-07 17:10:00,85.1,43.1,29.76,West,271,2.0,11.0,23,0.00,,,0.00,WeatherTracker,2013-09-08 00:10:00,
2013-09-07 17:15:00,85.0,40.7,29.76,SW,218,2.0,11.0,21,0.00,,,0.00,WeatherTracker,2013-09-08 00:15:00,
2013-09-07 17:20:00,85.1,40.7,29.76,NW,315,3.0,11.0,21,0.00,,,0.00,WeatherTracker,2013-09-08 00:20:00,
2013-09-07 17:25:00,85.5,42.3,29.77,NNW,333,0.0,5.0,22,0.00,,,0.00,WeatherTracker,2013-09-08 00:25:00,
2013-09-07 17:30:00,86.0,40.2,29.76,SE,138,3.0,5.0,20,0.00,,,0.00,WeatherTracker,2013-09-08 00:30:00,
2013-09-07 17:35:00,86.2,39.1,29.77,ESE,113,3.0,4.0,19,0.00,,,0.00,WeatherTracker,2013-09-08 00:35:00,
2013-09-07 17:40:00,86.1,40.3,29.77,ESE,105,0.0,4.0,20,0.00,,,0.00,WeatherTracker,2013-09-08 00:40:00,
2013-09-07 17:45:00,85.6,42.4,29.77,South,175,5.0,5.0,22,0.00,,,0.00,WeatherTracker,2013-09-08 00:45:00,
2013-09-07 17:50:00,83.7,40.8,29.77,SSW,201,4.0,6.0,22,0.00,,,0.00,WeatherTracker,2013-09-08 00:50:00,
2013-09-07 17:55:00,83.5,38.2,29.77,SSW,208,0.0,6.0,20,0.00,,,0.00,WeatherTracker,2013-09-08 00:55:00,
2013-09-07 18:01:00,83.8,42.0,29.77,West,267,13.0,13.0,23,0.00,,,0.00,WeatherTracker,2013-09-08 01:01:00,
2013-09-07 18:06:00,82.9,41.3,29.77,WNW,284,10.0,15.0,23,0.00,,,0.00,WeatherTracker,2013-09-08 01:06:00,
2013-09-07 18:11:00,82.3,41.9,29.77,West,268,6.0,15.0,24,0.00,,,0.00,WeatherTracker,2013-09-08 01:11:00,
2013-09-07 18:18:00,81.6,40.2,29.77,West,275,7.0,14.0,23,0.00,,,0.00,WeatherTracker,2013-09-08 01:18:00,
2013-09-07 18:23:00,81.3,39.9,29.77,West,268,4.0,14.0,23,0.00,,,0.00,WeatherTracker,2013-09-08 01:23:00,
2013-09-07 18:28:00,81.2,39.9,29.77,WSW,248,0.0,14.0,23,0.00,,,0.00,WeatherTracker,2013-09-08 01:28:00,
2013-09-07 18:33:00,79.7,41.8,29.77,SW,226,0.0,14.0,26,0.00,,,0.00,WeatherTracker,2013-09-08 01:33:00,
2013-09-07 18:38:00,78.4,40.7,29.77,SW,226,2.0,3.0,26,0.00,,,0.00,WeatherTracker,2013-09-08 01:38:00,
2013-09-07 18:43:00,77.3,40.7,29.78,SW,218,1.0,4.0,27,0.00,,,0.00,WeatherTracker,2013-09-08 01:43:00,
2013-09-07 18:48:00,78.4,39.6,29.78,SW,217,3.0,5.0,25,0.00,,,0.00,WeatherTracker,2013-09-08 01:48:00,
2013-09-07 18:53:00,78.7,41.9,29.78,SW,235,1.0,10.0,27,0.00,,,0.00,WeatherTracker,2013-09-08 01:53:00,
2013-09-07 18:58:00,78.1,40.4,29.78,WSW,248,2.0,10.0,26,0.00,,,0.00,WeatherTracker,2013-09-08 01:58:00,
2013-09-07 19:03:00,78.0,41.3,29.79,West,261,0.0,11.0,27,0.00,,,0.00,WeatherTracker,2013-09-08 02:03:00,
2013-09-07 19:08:00,77.7,41.0,29.79,West,260,0.0,11.0,27,0.00,,,0.00,WeatherTracker,2013-09-08 02:08:00,
2013-09-07 19:13:00,77.3,40.7,29.79,SSW,199,3.0,10.0,27,0.00,,,0.00,WeatherTracker,2013-09-08 02:13:00,
2013-09-07 19:18:00,77.1,40.5,29.79,WSW,242,2.0,6.0,27,0.00,,,0.00,WeatherTracker,2013-09-08 02:18:00,
2013-09-07 19:24:00,77.0,39.5,29.79,WSW,256,2.0,6.0,26,0.00,,,0.00,WeatherTracker,2013-09-08 02:24:00,
2013-09-07 19:29:00,77.3,40.7,29.79,WSW,239,0.0,6.0,27,0.00,,,0.00,WeatherTracker,2013-09-08 02:29:00,
2013-09-07 19:34:00,76.9,41.3,29.80,WSW,240,2.0,6.0,28,0.00,,,0.00,WeatherTracker,2013-09-08 02:34:00,
2013-09-07 19:39:00,76.1,40.6,29.80,SSW,197,2.0,6.0,28,0.00,,,0.00,WeatherTracker,2013-09-08 02:39:00,
2013-09-07 19:44:00,75.7,41.2,29.80,SW,216,2.0,7.0,29,0.00,,,0.00,WeatherTracker,2013-09-08 02:44:00,
2013-09-07 19:49:00,74.5,40.1,29.80,SSW,201,2.0,7.0,29,0.00,,,0.00,WeatherTracker,2013-09-08 02:49:00,
2013-09-07 19:54:00,74.2,39.0,29.81,SSW,210,1.0,4.0,28,0.00,,,0.00,WeatherTracker,2013-09-08 02:54:00,
2013-09-07 19:59:00,74.2,39.9,29.81,SW,217,2.0,4.0,29,0.00,,,0.00,WeatherTracker,2013-09-08 02:59:00,
2013-09-07 20:04:00,74.4,40.1,29.81,SW,225,1.0,4.0,29,0.00,,,0.00,WeatherTracker,2013-09-08 03:04:00,
2013-09-07 20:09:00,73.9,40.5,29.81,SW,225,2.0,7.0,30,0.00,,,0.00,WeatherTracker,2013-09-08 03:09:00,
2013-09-07 20:14:00,73.1,40.7,29.81,SW,227,2.0,7.0,31,0.00,,,0.00,WeatherTracker,2013-09-08 03:14:00,
2013-09-07 20:19:00,70.5,40.0,29.82,SW,222,0.0,3.0,33,0.00,,,0.00,WeatherTracker,2013-09-08 03:19:00,
2013-09-07 20:24:00,69.0,39.5,29.82,SSW,192,0.0,3.0,34,0.00,,,0.00,WeatherTracker,2013-09-08 03:24:00,
2013-09-07 20:29:00,69.0,40.2,29.82,West,270,0.0,4.0,35,0.00,,,0.00,WeatherTracker,2013-09-08 03:29:00,
2013-09-07 20:34:00,70.0,42.5,29.82,West,259,3.0,4.0,37,0.00,,,0.00,WeatherTracker,2013-09-08 03:34:00,
2013-09-07 20:39:00,69.7,40.1,29.82,WSW,258,2.0,5.0,34,0.00,,,0.00,WeatherTracker,2013-09-08 03:39:00,
2013-09-07 20:44:00,70.6,40.9,29.82,WSW,254,0.0,5.0,34,0.00,,,0.00,WeatherTracker,2013-09-08 03:44:00,
2013-09-07 20:49:00,71.1,40.5,29.82,WSW,254,2.0,5.0,33,0.00,,,0.00,WeatherTracker,2013-09-08 03:49:00,
2013-09-07 20:54:00,69.3,40.5,29.83,ESE,113,2.0,5.0,35,0.00,,,0.00,WeatherTracker,2013-09-08 03:54:00,
2013-09-07 21:00:00,67.2,39.3,29.83,East,91,1.0,4.0,36,0.00,,,0.00,WeatherTracker,2013-09-08 04:00:00,
2013-09-07 21:01:00,66.9,39.1,29.83,East,91,2.0,4.0,36,0.00,,,0.00,WeatherTracker,2013-09-08 04:01:00,
2013-09-07 21:02:00,66.5,38.7,29.83,East,91,0.0,4.0,36,0.00,,,0.00,WeatherTracker,2013-09-08 04:02:00,
2013-09-07 21:08:00,65.7,39.4,29.84,East,96,0.0,4.0,38,0.00,,,0.00,WeatherTracker,2013-09-08 04:08:00,